createdAt,value
2022-09-30T00:02:16.162Z,32.20
2022-09-30T00:04:48.686Z,31.90
2022-09-30T00:07:20.929Z,31.30
2022-09-30T00:09:53.302Z,29.60
2022-09-30T00:12:27.604Z,30.10
2022-09-30T00:15:01.726Z,28.10
2022-09-30T00:17:34.540Z,28.40
2022-09-30T00:20:09.858Z,29.40
2022-09-30T00:22:43.146Z,27.80
2022-09-30T00:25:16.383Z,28.10
2022-09-30T00:27:48.617Z,30.40
2022-09-30T00:30:20.974Z,27.40
2022-09-30T00:32:53.253Z,28.10
2022-09-30T00:35:25.624Z,28.40
2022-09-30T00:38:00.433Z,27.40
2022-09-30T00:40:32.994Z,26.80
2022-09-30T00:43:07.045Z,30.20
2022-09-30T00:45:39.390Z,26.30
2022-09-30T00:48:17.936Z,24.70
2022-09-30T00:50:55.613Z,25.70
2022-09-30T00:53:33.253Z,26.70
2022-09-30T00:56:09.186Z,26.30
2022-09-30T00:58:47.423Z,26.70
2022-09-30T01:01:20.392Z,26.40
2022-09-30T01:03:56.526Z,24.30
2022-09-30T01:06:28.804Z,26.00
2022-09-30T01:09:02.327Z,25.40
2022-09-30T01:11:34.870Z,20.50
2022-09-30T01:14:12.948Z,23.50
2022-09-30T01:16:56.949Z,24.00
2022-09-30T01:19:49.371Z,25.70
2022-09-30T01:22:33.333Z,23.80
2022-09-30T01:25:26.075Z,28.20
2022-09-30T01:28:38.426Z,24.60
2022-09-30T01:31:25.078Z,26.30
2022-09-30T01:34:07.571Z,22.40
2022-09-30T01:36:54.643Z,25.70
2022-09-30T01:39:38.823Z,28.80
2022-09-30T01:42:19.840Z,25.70
2022-09-30T01:45:03.572Z,28.20
2022-09-30T01:47:44.128Z,27.20
2022-09-30T01:50:22.942Z,28.60
2022-09-30T01:53:05.076Z,25.30
2022-09-30T01:55:44.139Z,27.10
2022-09-30T01:58:21.035Z,27.20
2022-09-30T02:03:33.955Z,28.20
2022-09-30T02:06:09.299Z,26.90
2022-09-30T02:08:47.402Z,26.00
2022-09-30T02:11:25.155Z,28.50
2022-09-30T02:14:03.069Z,31.30
2022-09-30T02:16:41.249Z,32.00
2022-09-30T02:19:20.572Z,31.70
2022-09-30T02:21:58.054Z,31.20
2022-09-30T02:24:37.052Z,28.20
2022-09-30T02:27:14.495Z,29.30
2022-09-30T02:29:51.024Z,30.20
2022-09-30T02:32:29.135Z,32.20
2022-09-30T02:35:04.008Z,32.20
2022-09-30T02:37:42.268Z,31.10
2022-09-30T02:40:19.620Z,33.00
2022-09-30T02:42:51.967Z,29.60
2022-09-30T02:45:25.742Z,28.90
2022-09-30T02:48:14.854Z,31.00
2022-09-30T02:50:53.068Z,29.40
2022-09-30T02:53:33.378Z,30.10
2022-09-30T02:56:14.544Z,30.40
2022-09-30T02:58:48.817Z,30.10
2022-09-30T03:01:21.519Z,32.50
2022-09-30T03:03:56.734Z,33.10
2022-09-30T03:06:29.608Z,33.80
2022-09-30T03:09:01.740Z,32.30
2022-09-30T03:11:34.460Z,33.50
2022-09-30T03:14:32.197Z,34.00
2022-09-30T03:17:27.961Z,32.60
2022-09-30T03:20:22.124Z,30.30
2022-09-30T03:23:23.200Z,34.30
2022-09-30T03:26:05.127Z,32.30
2022-09-30T03:28:44.779Z,30.40
2022-09-30T03:31:24.341Z,32.90
2022-09-30T03:34:02.430Z,33.50
2022-09-30T03:36:40.569Z,33.40
2022-09-30T03:39:24.959Z,31.70
2022-09-30T03:42:06.743Z,33.10
2022-09-30T03:44:43.775Z,33.40
2022-09-30T03:47:20.060Z,36.10
2022-09-30T03:49:57.262Z,33.70
2022-09-30T03:52:31.733Z,37.30
2022-09-30T03:55:08.147Z,39.40
2022-09-30T03:57:40.822Z,39.40
2022-09-30T04:00:14.781Z,43.70
2022-09-30T04:02:46.932Z,41.70
2022-09-30T04:05:19.119Z,37.90
2022-09-30T04:07:51.162Z,40.40
2022-09-30T04:10:23.485Z,42.90
2022-09-30T04:12:57.899Z,40.10
2022-09-30T04:15:30.109Z,44.10
2022-09-30T04:18:02.893Z,39.50
2022-09-30T04:20:35.819Z,39.70
2022-09-30T04:23:07.930Z,44.30
2022-09-30T04:25:40.123Z,45.40
2022-09-30T04:28:12.188Z,43.20
2022-09-30T04:30:44.347Z,44.20
2022-09-30T04:33:17.265Z,41.70
2022-09-30T04:35:49.305Z,40.20
2022-09-30T04:38:21.342Z,39.40
2022-09-30T04:40:54.773Z,40.40
2022-09-30T04:43:27.386Z,39.20
2022-09-30T04:45:59.738Z,41.40
2022-09-30T04:48:32.491Z,38.70
2022-09-30T04:51:04.674Z,40.10
2022-09-30T04:53:37.390Z,40.20
2022-09-30T04:56:10.304Z,44.00
2022-09-30T04:58:42.389Z,44.70
2022-09-30T05:01:16.944Z,41.20
2022-09-30T05:03:49.422Z,42.10
2022-09-30T05:06:22.080Z,40.40
2022-09-30T05:08:54.708Z,40.10
2022-09-30T05:11:27.852Z,44.10
2022-09-30T05:13:59.989Z,46.00
2022-09-30T05:16:32.157Z,41.40
2022-09-30T05:19:04.881Z,40.30
2022-09-30T05:21:37.377Z,44.50
2022-09-30T05:24:09.597Z,39.90
2022-09-30T05:26:41.674Z,42.90
2022-09-30T05:29:14.320Z,42.20
2022-09-30T05:31:46.850Z,44.40
2022-09-30T05:34:19.084Z,43.50
2022-09-30T05:36:51.302Z,41.50
2022-09-30T05:39:23.557Z,41.00
2022-09-30T05:41:57.138Z,41.20
2022-09-30T05:44:29.205Z,41.80
2022-09-30T05:47:01.478Z,43.10
2022-09-30T05:49:34.920Z,37.80
2022-09-30T05:52:07.895Z,41.40
2022-09-30T05:54:40.100Z,42.20
2022-09-30T05:57:13.664Z,37.40
2022-09-30T05:59:45.832Z,37.80
2022-09-30T06:02:18.011Z,36.50
2022-09-30T06:04:50.704Z,42.40
2022-09-30T06:07:23.014Z,40.30
2022-09-30T06:09:55.206Z,36.70
2022-09-30T06:12:28.849Z,35.20
2022-09-30T06:15:00.933Z,35.50
2022-09-30T06:17:33.247Z,37.50
2022-09-30T06:20:06.408Z,33.00
2022-09-30T06:22:39.231Z,35.50
2022-09-30T06:25:12.818Z,35.00
2022-09-30T06:27:47.803Z,29.60
2022-09-30T06:30:20.098Z,34.00
2022-09-30T06:32:54.235Z,31.40
2022-09-30T06:35:27.808Z,31.40
2022-09-30T06:38:00.035Z,29.90
2022-09-30T06:40:32.153Z,29.30
2022-09-30T06:43:05.754Z,29.60
2022-09-30T06:45:39.055Z,30.20
2022-09-30T06:48:12.864Z,30.10
2022-09-30T06:50:58.438Z,28.10
2022-09-30T06:53:35.614Z,28.00
2022-09-30T06:56:08.349Z,30.30
2022-09-30T06:58:41.590Z,28.90
2022-09-30T07:01:15.699Z,28.20
2022-09-30T07:03:54.017Z,29.10
2022-09-30T07:06:27.369Z,33.10
2022-09-30T07:09:00.109Z,29.90
2022-09-30T07:11:32.489Z,33.10
2022-09-30T07:14:05.588Z,29.80
2022-09-30T07:16:38.757Z,30.30
2022-09-30T07:19:12.251Z,33.60
2022-09-30T07:21:44.771Z,31.40
2022-09-30T07:24:17.212Z,28.10
2022-09-30T07:26:49.601Z,25.40
2022-09-30T07:29:21.989Z,24.30
2022-09-30T07:31:55.419Z,27.00
2022-09-30T07:34:35.602Z,27.30
2022-09-30T07:37:07.924Z,24.60
2022-09-30T07:39:40.028Z,24.90
2022-09-30T07:42:12.192Z,24.80
2022-09-30T07:44:45.092Z,27.00
2022-09-30T07:47:18.860Z,24.20
2022-09-30T07:49:51.213Z,22.40
2022-09-30T07:52:23.293Z,26.20
2022-09-30T07:54:55.947Z,26.80
2022-09-30T07:57:28.228Z,24.90
2022-09-30T08:00:08.141Z,22.70
2022-09-30T08:02:52.704Z,21.00
2022-09-30T08:05:24.796Z,20.40
2022-09-30T08:07:57.195Z,20.20
2022-09-30T08:10:29.415Z,21.40
2022-09-30T08:13:04.264Z,23.10
2022-09-30T08:15:38.783Z,22.40
2022-09-30T08:18:10.968Z,24.30
2022-09-30T08:20:43.031Z,20.70
2022-09-30T08:23:15.393Z,24.20
2022-09-30T08:25:47.965Z,26.20
2022-09-30T08:28:20.269Z,22.80
2022-09-30T08:30:52.382Z,28.50
2022-09-30T08:33:24.621Z,23.00
2022-09-30T08:35:56.714Z,24.10
2022-09-30T08:38:28.968Z,23.30
2022-09-30T08:41:13.317Z,29.00
2022-09-30T08:43:59.573Z,24.60
2022-09-30T08:46:39.480Z,25.90
2022-09-30T08:49:28.442Z,22.80
2022-09-30T08:52:03.190Z,27.80
2022-09-30T08:54:40.242Z,22.30
2022-09-30T08:57:14.488Z,24.90
2022-09-30T08:59:49.465Z,22.70
2022-09-30T09:02:27.798Z,25.70
2022-09-30T09:05:03.120Z,26.40
2022-09-30T09:07:43.626Z,25.80
2022-09-30T09:10:29.648Z,28.20
2022-09-30T09:13:12.653Z,23.40
2022-09-30T09:16:01.179Z,23.30
2022-09-30T09:18:43.498Z,24.40
2022-09-30T09:21:23.840Z,29.60
2022-09-30T09:23:58.819Z,29.20
2022-09-30T09:26:36.587Z,27.10
2022-09-30T09:29:26.869Z,26.20
2022-09-30T09:32:02.158Z,21.50
2022-09-30T09:34:38.239Z,23.40
2022-09-30T09:37:21.961Z,24.90
2022-09-30T09:40:11.175Z,27.30
2022-09-30T09:43:02.157Z,23.70
2022-09-30T09:45:39.734Z,27.50
2022-09-30T09:48:17.523Z,31.00
2022-09-30T09:50:59.642Z,26.60
2022-09-30T09:53:45.587Z,28.10
2022-09-30T09:56:21.542Z,23.40
2022-09-30T09:59:12.692Z,26.30
2022-09-30T10:01:46.865Z,25.90
2022-09-30T10:04:24.661Z,26.90
2022-09-30T10:07:01.155Z,28.20
2022-09-30T10:09:36.181Z,30.80
2022-09-30T10:12:37.081Z,27.40
2022-09-30T10:15:24.539Z,27.20
2022-09-30T10:18:01.020Z,28.10
2022-09-30T10:20:37.824Z,27.30
2022-09-30T10:23:19.782Z,23.80
2022-09-30T10:26:17.690Z,25.50
2022-09-30T10:31:27.521Z,21.90
2022-09-30T10:34:11.050Z,24.70
2022-09-30T10:36:44.975Z,23.90
2022-09-30T10:39:25.068Z,24.00
2022-09-30T10:42:08.658Z,26.10
2022-09-30T10:44:48.925Z,20.10
2022-09-30T10:47:26.229Z,21.40
2022-09-30T10:50:04.732Z,19.70
2022-09-30T10:52:44.805Z,23.50
2022-09-30T10:55:33.242Z,19.90
2022-09-30T10:58:26.624Z,21.90
2022-09-30T11:01:06.063Z,20.60
2022-09-30T11:03:48.536Z,17.70
2022-09-30T11:06:22.705Z,20.50
2022-09-30T11:09:03.442Z,19.10
2022-09-30T11:11:43.153Z,19.30
2022-09-30T11:14:30.826Z,20.00
2022-09-30T11:17:20.490Z,16.30
2022-09-30T11:20:07.772Z,17.90
2022-09-30T11:22:48.860Z,17.50
2022-09-30T11:25:28.606Z,16.60
2022-09-30T11:28:29.775Z,15.40
2022-09-30T11:31:09.850Z,16.40
2022-09-30T11:33:58.387Z,11.70
2022-09-30T11:36:39.875Z,14.10
2022-09-30T11:39:35.262Z,14.80
2022-09-30T11:42:15.127Z,12.10
2022-09-30T11:44:48.138Z,17.10
2022-09-30T11:47:39.555Z,12.50
2022-09-30T11:50:37.424Z,11.30
2022-09-30T11:53:21.129Z,12.50
2022-09-30T11:56:18.076Z,14.80
2022-09-30T11:58:52.989Z,11.70
2022-09-30T12:01:31.082Z,12.40
2022-09-30T12:04:10.089Z,14.30
2022-09-30T12:06:45.744Z,9.70
2022-09-30T12:09:23.591Z,10.40
2022-09-30T12:12:02.191Z,13.40
2022-09-30T12:14:42.435Z,9.30
2022-09-30T12:17:27.987Z,16.50
2022-09-30T12:20:04.465Z,12.30
2022-09-30T12:22:42.856Z,10.00
2022-09-30T12:25:20.115Z,10.80
2022-09-30T12:27:58.157Z,11.10
2022-09-30T12:30:32.068Z,10.20
2022-09-30T12:33:29.080Z,9.00
2022-09-30T12:36:20.126Z,10.10
2022-09-30T12:39:15.829Z,10.10
2022-09-30T12:42:07.876Z,9.00
2022-09-30T12:45:22.664Z,11.20
2022-09-30T12:47:57.720Z,9.70
2022-09-30T12:50:36.096Z,10.20
2022-09-30T12:53:18.793Z,8.50
2022-09-30T12:55:52.776Z,8.90
2022-09-30T12:58:31.184Z,9.20
2022-09-30T13:01:07.975Z,10.50
2022-09-30T13:03:53.801Z,9.50
2022-09-30T13:06:28.260Z,9.90
2022-09-30T13:09:22.431Z,12.90
2022-09-30T13:12:25.246Z,10.20
2022-09-30T13:15:39.787Z,9.50
2022-09-30T13:18:48.179Z,11.50
2022-09-30T13:21:24.437Z,9.20
2022-09-30T13:23:58.045Z,11.60
2022-09-30T13:26:46.413Z,10.50
2022-09-30T13:29:39.332Z,9.60
2022-09-30T13:32:12.734Z,11.90
2022-09-30T13:35:20.896Z,12.60
2022-09-30T13:38:16.759Z,11.70
2022-09-30T13:41:08.000Z,13.40
2022-09-30T13:43:45.161Z,10.20
2022-09-30T13:46:29.974Z,12.10
2022-09-30T13:49:08.207Z,16.30
2022-09-30T13:51:40.933Z,12.00
2022-09-30T13:54:21.240Z,11.80
2022-09-30T13:56:54.807Z,10.00
2022-09-30T13:59:49.373Z,9.50
2022-09-30T14:02:43.530Z,9.50
2022-09-30T14:05:46.302Z,8.90
2022-09-30T14:08:36.817Z,11.80
2022-09-30T14:11:22.224Z,8.80
2022-09-30T14:14:09.553Z,8.60
2022-09-30T14:16:56.435Z,10.20
2022-09-30T14:19:44.548Z,9.30
2022-09-30T14:22:19.199Z,9.30
2022-09-30T14:24:53.021Z,8.60
2022-09-30T14:27:46.724Z,7.80
2022-09-30T14:30:23.220Z,9.80
2022-09-30T14:36:20.323Z,8.40
2022-09-30T14:39:03.861Z,10.20
2022-09-30T14:41:36.267Z,7.10
2022-09-30T14:44:14.270Z,10.20
2022-09-30T14:46:48.248Z,8.70
2022-09-30T14:49:29.126Z,8.50
2022-09-30T14:52:03.321Z,11.00
2022-09-30T14:54:35.987Z,7.20
2022-09-30T14:57:19.800Z,7.50
2022-09-30T14:59:52.028Z,6.70
2022-09-30T15:02:24.537Z,8.40
2022-09-30T15:05:01.477Z,9.60
2022-09-30T15:07:34.563Z,9.10
2022-09-30T15:10:07.679Z,10.00
2022-09-30T15:12:43.863Z,10.20
2022-09-30T15:15:34.312Z,11.10
2022-09-30T15:18:33.894Z,9.50
2022-09-30T15:21:11.608Z,8.10
2022-09-30T15:23:47.492Z,10.20
2022-09-30T15:26:20.860Z,9.40
2022-09-30T15:28:54.957Z,10.60
2022-09-30T15:31:30.005Z,12.90
2022-09-30T15:34:08.861Z,12.10
2022-09-30T15:36:41.298Z,11.30
2022-09-30T15:39:22.874Z,10.90
2022-09-30T15:41:55.771Z,11.40
2022-09-30T15:44:40.282Z,13.60
2022-09-30T15:47:13.217Z,13.20
2022-09-30T15:49:50.564Z,12.90
2022-09-30T15:52:37.817Z,11.60
2022-09-30T15:55:38.801Z,12.20
2022-09-30T15:58:36.410Z,10.00
2022-09-30T16:01:19.868Z,12.40
2022-09-30T16:03:55.912Z,9.60
2022-09-30T16:06:35.330Z,10.90
2022-09-30T16:09:19.504Z,15.20
2022-09-30T16:12:02.968Z,18.20
2022-09-30T16:14:45.004Z,15.00
2022-09-30T16:17:24.308Z,14.70
2022-09-30T16:19:58.842Z,11.60
2022-09-30T16:22:51.912Z,10.90
2022-09-30T16:25:28.375Z,11.50
2022-09-30T16:28:02.432Z,13.10
2022-09-30T16:30:34.872Z,12.20
2022-09-30T16:33:08.434Z,10.50
2022-09-30T16:35:42.783Z,10.30
2022-09-30T16:38:17.851Z,11.70
2022-09-30T16:40:50.188Z,10.90
2022-09-30T16:43:26.399Z,11.20
2022-09-30T16:46:00.674Z,13.60
2022-09-30T16:48:35.051Z,13.30
2022-09-30T16:51:12.745Z,10.90
2022-09-30T16:53:47.888Z,10.30
2022-09-30T16:56:21.310Z,10.70
2022-09-30T16:58:54.164Z,11.80
2022-09-30T17:01:28.342Z,11.30
2022-09-30T17:04:00.843Z,10.90
2022-09-30T17:06:34.958Z,10.90
2022-09-30T17:09:08.396Z,10.80
2022-09-30T17:11:41.206Z,11.10
2022-09-30T17:14:13.500Z,13.60
2022-09-30T17:16:46.754Z,11.50
2022-09-30T17:19:20.214Z,14.10
2022-09-30T17:21:53.187Z,11.80
2022-09-30T17:24:30.123Z,11.90
2022-09-30T17:29:33.830Z,13.10
2022-09-30T17:32:06.749Z,12.40
2022-09-30T17:34:40.590Z,13.70
2022-09-30T17:37:14.982Z,13.10
2022-09-30T17:39:48.423Z,14.20
2022-09-30T17:42:38.739Z,13.20
2022-09-30T17:45:12.696Z,20.40
2022-09-30T17:47:46.892Z,15.30
2022-09-30T17:50:22.426Z,13.50
2022-09-30T17:52:56.040Z,16.00
2022-09-30T17:55:29.295Z,16.80
2022-09-30T17:58:06.811Z,13.50
2022-09-30T18:00:40.121Z,14.80
2022-09-30T18:03:13.410Z,16.40
2022-09-30T18:05:49.398Z,15.50
2022-09-30T18:08:22.998Z,18.90
2022-09-30T18:10:57.487Z,15.40
2022-09-30T18:13:30.985Z,20.00
2022-09-30T18:16:08.297Z,15.40
2022-09-30T18:18:42.625Z,18.50
2022-09-30T18:21:18.129Z,15.20
2022-09-30T18:23:51.450Z,18.40
2022-09-30T18:26:26.165Z,17.60
2022-09-30T18:29:01.195Z,20.20
2022-09-30T18:31:37.748Z,18.80
2022-09-30T18:34:19.352Z,18.00
2022-09-30T18:36:54.837Z,16.50
2022-09-30T18:39:41.692Z,18.60
2022-09-30T18:42:16.071Z,16.70
2022-09-30T18:44:56.293Z,17.60
2022-09-30T18:47:30.895Z,20.10
2022-09-30T18:50:04.464Z,18.20
2022-09-30T18:52:41.158Z,19.40
2022-09-30T18:55:14.231Z,17.90
2022-09-30T18:57:50.794Z,15.90
2022-09-30T19:00:25.583Z,18.90
2022-09-30T19:03:00.453Z,16.80
2022-09-30T19:05:33.447Z,19.50
2022-09-30T19:08:10.721Z,16.20
2022-09-30T19:13:20.090Z,16.30
2022-09-30T19:15:53.692Z,16.40
2022-09-30T19:18:35.589Z,16.70
2022-09-30T19:21:11.472Z,16.70
2022-09-30T19:23:46.109Z,14.80
2022-09-30T19:26:23.335Z,14.00
2022-09-30T19:28:56.942Z,15.90
2022-09-30T19:31:31.348Z,16.70
2022-09-30T19:34:06.467Z,16.00
2022-09-30T19:36:50.061Z,17.80
2022-09-30T19:39:28.807Z,19.20
2022-09-30T19:42:14.549Z,22.20
2022-09-30T19:44:48.345Z,18.30
2022-09-30T19:47:22.767Z,16.20
2022-09-30T19:49:59.676Z,19.10
2022-09-30T19:52:50.928Z,17.50
2022-09-30T19:55:27.895Z,25.80
2022-09-30T19:58:08.416Z,28.60
2022-09-30T20:00:41.979Z,22.90
2022-09-30T20:03:15.647Z,24.60
2022-09-30T20:05:48.472Z,25.50
2022-09-30T20:08:24.422Z,23.60
2022-09-30T20:11:02.110Z,22.30
2022-09-30T20:13:40.242Z,27.10
2022-09-30T20:16:17.007Z,26.80
2022-09-30T20:18:49.839Z,26.00
2022-09-30T20:21:22.671Z,26.00
2022-09-30T20:23:56.724Z,29.50
2022-09-30T20:26:31.240Z,26.40
2022-09-30T20:29:04.138Z,30.00
2022-09-30T20:31:37.944Z,33.20
2022-09-30T20:34:12.620Z,30.80
2022-09-30T20:36:48.200Z,33.00
2022-09-30T20:39:21.717Z,32.70
2022-09-30T20:41:56.229Z,35.00
2022-09-30T20:44:28.938Z,37.60
2022-09-30T20:47:02.347Z,33.50
2022-09-30T20:49:35.279Z,32.30
2022-09-30T20:52:08.477Z,32.90
2022-09-30T20:54:40.869Z,34.90
2022-09-30T20:57:13.209Z,33.60
2022-09-30T20:59:46.847Z,32.10
2022-09-30T21:02:24.624Z,32.50
2022-09-30T21:04:57.857Z,34.70
2022-09-30T21:07:31.219Z,33.30
2022-09-30T21:10:04.141Z,35.10
2022-09-30T21:12:36.919Z,34.40
2022-09-30T21:15:12.431Z,33.90
2022-09-30T21:17:46.164Z,33.00
2022-09-30T21:20:19.020Z,31.50
2022-09-30T21:22:53.576Z,33.20
2022-09-30T21:25:26.450Z,35.00
2022-09-30T21:28:01.383Z,32.80
2022-09-30T21:30:34.645Z,38.20
2022-09-30T21:33:08.246Z,34.20
2022-09-30T21:35:40.621Z,35.70
2022-09-30T21:38:16.439Z,35.40
2022-09-30T21:40:49.082Z,33.60
2022-09-30T21:43:21.441Z,33.30
2022-09-30T21:46:01.986Z,31.50
2022-09-30T21:48:35.341Z,33.20
2022-09-30T21:51:09.921Z,29.70
2022-09-30T21:53:43.468Z,32.80
2022-09-30T21:56:15.897Z,33.30
2022-09-30T21:58:49.219Z,32.20
2022-09-30T22:01:21.704Z,30.60
2022-09-30T22:03:54.367Z,29.00
2022-09-30T22:06:26.861Z,32.00
2022-09-30T22:09:01.805Z,30.70
2022-09-30T22:11:34.695Z,31.50
2022-09-30T22:14:07.548Z,31.90
2022-09-30T22:16:40.032Z,32.50
2022-09-30T22:19:12.632Z,31.20
2022-09-30T22:21:44.777Z,28.60
2022-09-30T22:24:17.419Z,34.10
2022-09-30T22:26:50.566Z,31.80
2022-09-30T22:29:23.292Z,32.20
2022-09-30T22:31:55.709Z,34.90
2022-09-30T22:34:45.502Z,29.70
2022-09-30T22:37:35.216Z,30.30
2022-09-30T22:40:08.795Z,31.90
2022-09-30T22:42:41.300Z,30.50
2022-09-30T22:45:13.944Z,30.00
2022-09-30T22:47:46.491Z,32.40
2022-09-30T22:50:19.754Z,33.00
2022-09-30T22:52:52.459Z,38.50
2022-09-30T22:55:26.244Z,38.10
2022-09-30T22:57:58.821Z,33.70
2022-09-30T23:00:31.601Z,35.70
2022-09-30T23:03:04.585Z,37.60
2022-09-30T23:05:37.507Z,41.10
2022-09-30T23:08:10.009Z,32.70
2022-09-30T23:10:50.829Z,35.20
2022-09-30T23:13:24.120Z,35.30
2022-09-30T23:16:01.014Z,34.00
2022-09-30T23:21:08.953Z,37.60
2022-09-30T23:23:41.974Z,36.00
2022-09-30T23:26:16.449Z,36.40
2022-09-30T23:28:49.451Z,37.90
2022-09-30T23:31:21.796Z,35.50
2022-09-30T23:33:55.512Z,41.90
2022-09-30T23:36:31.100Z,39.00
2022-09-30T23:39:09.411Z,37.00
2022-09-30T23:41:43.657Z,34.50
2022-09-30T23:44:18.098Z,37.20
2022-09-30T23:47:08.405Z,40.90
2022-09-30T23:49:42.151Z,38.50
2022-09-30T23:52:15.292Z,40.10
2022-09-30T23:54:47.371Z,37.40
2022-09-30T23:57:19.449Z,36.60
2022-09-30T23:59:51.525Z,37.20
